ESSA/ARN METAR and TAF weather

Enter ICAO airport designator
Station Type Date Time Source
ESSA METAR 2019/08/21 22:20 UTC NOAA

ESSA 212220Z 22005KT CAVOK 11/09 Q1021 NOSIG


Station Type Date Time Source
ESSA Decoded METAR 2019/08/21 22:20 UTC NOAA

Station name not available
Aug 21, 2019 - 06:20 PM EDT / 2019.08.21 2220 UTC
Wind: from the SW (220 degrees) at 6 MPH (5 KT):0
Visibility: greater than 7 mile(s):0
Temperature: 51 F (11 C)
Dew Point: 48 F (9 C)
Relative Humidity: 87%
Pressure (altimeter): 30.15 in. Hg (1021 hPa)
ob: ESSA 212220Z 22005KT CAVOK 11/09 Q1021 NOSIG
cycle: 22

Station Type Date Time Source
ESSA TAF 2019/08/21 18:36 UTC NOAA

TAF ESSA 211730Z 2118/2218 24009KT CAVOK

Example: see airport list